Aeroporto :
LOGIN :

Iscrizione | Disclaimer

   EN    FR    IT 

 










Sommario :    VFR   VFR Marginale   IFR   IFR Intensivo   IFR Molto Intensivo
Visibilità : 
Base nubi : 
>= 8 km
>= 3000ft
5 / 8 km
1000 / 3000 ft
1500m / 5 km
500 / 1000 ft
800 / 1500m
200 / 500 ft
< 800m
< 200 ft
Simboli :   Temporali  Nebbia  Neve Forte  Precipitazioni Forti  Vento > 20 kt
SIGMETs :   Varie  Temporali  Ghiacco  Turbolenza  Onda orograficha  Ceneri Vulcaniche






- Altitudine del aeroporto : 1470 ft
- Codice IATA : KLU


LOWK - Klagenfurt

ULTIMO METAR :
  • 151220Z 24004KT 200V290 9999 -SHRA FEW007 SCT018 BKN040 06/04 Q1007 R10L/29//95 TEMPO SHRA BKN013

METARs OBSOLETI :
  • 151150Z 26003KT 220V310 9999 -RA FEW007 SCT018 BKN050 05/04 Q1007 R10L/29//95 TEMPO SHRA
  • 151120Z VRB02KT 9999 FEW007 BKN045 BKN050 05/03 Q1007 R10L/29//95 TEMPO SHRA
  • 151050Z VRB03KT 9999 FEW007 BKN045 BKN050 05/03 Q1008 R10L/29//95 TEMPO SHRA
  • 151020Z 31003KT 220V020 9999 FEW007 SCT012 BKN045 05/03 Q1008 R10L/29//95 NOSIG
  • 150950Z 32004KT 240V050 9999 FEW007 SCT012 BKN040 04/03 Q1008 R10L/29//95 NOSIG

TAF TAF LOWK
Valido dal 15 a 12 ore il 16 a 12 ore UTC


151115Z 1512/1612 35005KT 9999 SCT010 BKN040 TX08/1612Z TN06/1512Z
TEMPO 1512/1602 4000 -SHRA BKN009 FEW040CB
PROB30
TEMPO 1517/1524 02010KT 3000 +SHRA
TEMPO 1602/1610 BKN010



MetMap, La meteo Aeronautica in un colpo d'occhio ! - Copyright ORBIFLY Dicembre 2007 - Disclaimer

ORBIFLY MET'MAP TEAM :

Programmazione e sviluppo : Alexandra Zaïnal
Concezione e sviluppo : Baudouin d'Aumeries
Co-Programmazione e sviluppo : Marc-Olivier Méhu
Supporto tecnico e logistico : Manuel Goepfert
Aiuto per la traduzione : Arnaldo La Scala

Contatto : metmap@orbifly.com




FONTI E CREDITI :

   NOAA